createdAt,value
2023-05-23T00:01:00.043Z,9.50
2023-05-23T00:03:49.770Z,9.47
2023-05-23T00:06:39.296Z,9.30
2023-05-23T00:09:28.836Z,9.20
2023-05-23T00:12:18.363Z,9.63
2023-05-23T00:15:09.978Z,9.40
2023-05-23T00:18:01.384Z,9.23
2023-05-23T00:20:51.962Z,9.20
2023-05-23T00:23:42.352Z,9.70
2023-05-23T00:26:31.868Z,9.40
2023-05-23T00:29:21.348Z,9.30
2023-05-23T00:32:11.284Z,9.50
2023-05-23T00:35:02.124Z,9.30
2023-05-23T00:37:51.919Z,9.00
2023-05-23T00:40:41.432Z,9.40
2023-05-23T00:43:31.927Z,9.50
2023-05-23T00:46:21.712Z,9.40
2023-05-23T00:49:11.496Z,9.40
2023-05-23T00:52:04.730Z,9.50
2023-05-23T00:54:54.095Z,9.40
2023-05-23T00:57:44.629Z,9.60
2023-05-23T01:00:35.892Z,9.60
2023-05-23T01:03:28.771Z,9.40
2023-05-23T01:06:18.679Z,9.20
2023-05-23T01:09:09.825Z,9.20
2023-05-23T01:12:13.870Z,9.40
2023-05-23T01:15:08.806Z,9.23
2023-05-23T01:18:04.541Z,9.20
2023-05-23T01:20:57.100Z,8.80
2023-05-23T01:24:36.700Z,9.37
2023-05-23T01:27:52.784Z,9.33
2023-05-23T01:30:44.820Z,9.23
2023-05-23T01:33:35.109Z,9.30
2023-05-23T01:36:24.730Z,9.47
2023-05-23T01:39:14.795Z,9.40
2023-05-23T01:42:04.569Z,9.97
2023-05-23T01:44:59.353Z,10.10
2023-05-23T01:47:52.530Z,9.90
2023-05-23T01:50:45.507Z,9.50
2023-05-23T01:53:35.914Z,9.70
2023-05-23T01:56:27.199Z,10.00
2023-05-23T01:59:16.694Z,9.73
2023-05-23T02:02:08.073Z,9.50
2023-05-23T02:04:58.351Z,9.97
2023-05-23T02:07:47.879Z,10.00
2023-05-23T02:10:40.070Z,9.73
2023-05-23T02:13:29.434Z,9.80
2023-05-23T02:16:18.827Z,9.83
2023-05-23T02:19:09.626Z,9.83
2023-05-23T02:21:58.977Z,9.83
2023-05-23T02:24:48.342Z,9.77
2023-05-23T02:27:37.749Z,9.90
2023-05-23T02:30:27.713Z,10.03
2023-05-23T02:33:17.952Z,10.40
2023-05-23T02:36:09.214Z,9.80
2023-05-23T02:38:58.663Z,10.27
2023-05-23T02:41:48.094Z,10.03
2023-05-23T02:44:38.245Z,10.10
2023-05-23T02:47:27.635Z,9.90
2023-05-23T02:50:17.251Z,10.03
2023-05-23T02:53:07.989Z,10.30
2023-05-23T02:55:57.419Z,10.30
2023-05-23T02:58:46.954Z,10.33
2023-05-23T03:01:36.279Z,9.90
2023-05-23T03:04:25.727Z,10.17
2023-05-23T03:07:27.566Z,10.70
2023-05-23T03:10:19.675Z,9.90
2023-05-23T03:13:09.078Z,10.20
2023-05-23T03:15:58.906Z,10.13
2023-05-23T03:18:48.358Z,10.43
2023-05-23T03:21:38.446Z,10.47
2023-05-23T03:24:27.994Z,10.40
2023-05-23T03:27:18.796Z,10.07
2023-05-23T03:30:10.171Z,10.50
2023-05-23T03:32:59.793Z,10.37
2023-05-23T03:35:49.280Z,10.33
2023-05-23T03:38:38.648Z,10.23
2023-05-23T03:41:28.285Z,10.23
2023-05-23T03:44:22.256Z,9.93
2023-05-23T03:47:12.282Z,10.20
2023-05-23T03:50:05.847Z,10.30
2023-05-23T03:52:56.432Z,9.93
2023-05-23T03:55:46.537Z,9.97
2023-05-23T03:58:35.957Z,10.30
2023-05-23T04:01:32.853Z,10.10
2023-05-23T04:04:23.030Z,9.77
2023-05-23T04:07:12.612Z,9.90
2023-05-23T04:10:05.004Z,10.17
2023-05-23T04:12:54.556Z,10.13
2023-05-23T04:15:46.009Z,10.10
2023-05-23T04:18:39.257Z,10.10
2023-05-23T04:21:29.810Z,10.60
2023-05-23T04:24:31.248Z,10.43
2023-05-23T04:27:22.323Z,10.80
2023-05-23T04:30:13.009Z,10.90
2023-05-23T04:33:06.388Z,10.70
2023-05-23T04:35:57.334Z,11.07
2023-05-23T04:38:47.345Z,10.57
2023-05-23T04:41:36.879Z,10.50
2023-05-23T04:44:57.454Z,10.63
2023-05-23T04:48:05.543Z,11.13
2023-05-23T04:51:07.878Z,10.77
2023-05-23T04:54:00.930Z,11.07
2023-05-23T04:56:53.844Z,11.07
2023-05-23T04:59:44.048Z,11.20
2023-05-23T05:02:35.345Z,10.90
2023-05-23T05:05:24.826Z,10.90
2023-05-23T05:08:15.625Z,11.30
2023-05-23T05:11:05.957Z,11.30
2023-05-23T05:13:55.698Z,11.67
2023-05-23T05:16:46.159Z,11.50
2023-05-23T05:19:35.883Z,11.20
2023-05-23T05:22:25.841Z,11.60
2023-05-23T05:25:16.732Z,11.80
2023-05-23T05:28:06.539Z,11.40
2023-05-23T05:31:05.300Z,11.30
2023-05-23T05:33:57.691Z,11.93
2023-05-23T05:36:48.153Z,14.30
2023-05-23T05:39:39.652Z,13.33
2023-05-23T05:42:30.576Z,12.93
2023-05-23T05:45:20.591Z,12.93
2023-05-23T05:48:11.872Z,13.00
2023-05-23T05:51:03.378Z,13.03
2023-05-23T05:53:55.652Z,12.80
2023-05-23T05:56:45.840Z,13.37
2023-05-23T05:59:37.230Z,13.53
2023-05-23T06:02:26.853Z,13.80
2023-05-23T06:05:17.079Z,14.00
2023-05-23T06:08:07.821Z,13.50
2023-05-23T06:10:57.549Z,13.33
2023-05-23T06:13:48.730Z,13.00
2023-05-23T06:16:40.788Z,13.00
2023-05-23T06:19:30.689Z,13.50
2023-05-23T06:22:21.976Z,13.13
2023-05-23T06:25:12.080Z,13.30
2023-05-23T06:28:01.406Z,13.33
2023-05-23T06:30:52.522Z,13.40
2023-05-23T06:33:43.435Z,13.03
2023-05-23T06:36:33.487Z,12.73
2023-05-23T06:39:22.985Z,12.50
2023-05-23T06:42:12.400Z,12.80
2023-05-23T06:45:17.502Z,12.90
2023-05-23T06:48:07.054Z,13.00
2023-05-23T06:51:00.323Z,13.13
2023-05-23T06:53:50.591Z,13.37
2023-05-23T06:56:40.128Z,13.23
2023-05-23T06:59:29.673Z,12.40
2023-05-23T07:02:19.030Z,13.00
2023-05-23T07:05:10.632Z,12.73
2023-05-23T07:08:11.902Z,12.53
2023-05-23T07:11:04.892Z,12.40
2023-05-23T07:14:01.428Z,12.77
2023-05-23T07:17:03.632Z,12.13
2023-05-23T07:19:53.244Z,12.60
2023-05-23T07:22:43.251Z,12.20
2023-05-23T07:25:34.177Z,12.43
2023-05-23T07:28:25.171Z,12.93
2023-05-23T07:31:15.897Z,12.30
2023-05-23T07:34:06.219Z,12.63
2023-05-23T07:37:02.863Z,12.90
2023-05-23T07:40:02.623Z,12.67
2023-05-23T07:42:54.266Z,12.43
2023-05-23T07:45:43.645Z,12.17
2023-05-23T07:48:33.092Z,11.97
2023-05-23T07:51:22.929Z,12.90
2023-05-23T07:54:16.380Z,12.70
2023-05-23T07:57:07.481Z,14.40
2023-05-23T07:59:59.632Z,15.57
2023-05-23T08:02:51.089Z,14.57
2023-05-23T08:05:48.388Z,14.00
2023-05-23T08:08:38.019Z,13.70
2023-05-23T08:11:30.455Z,13.13
2023-05-23T08:14:20.009Z,12.90
2023-05-23T08:17:31.035Z,12.57
2023-05-23T08:20:20.836Z,13.10
2023-05-23T08:23:12.083Z,12.93
2023-05-23T08:26:01.533Z,13.30
2023-05-23T08:28:51.327Z,13.37
2023-05-23T08:31:41.356Z,13.63
2023-05-23T08:34:33.408Z,13.13
2023-05-23T08:37:22.839Z,13.60
2023-05-23T08:40:16.628Z,13.97
2023-05-23T08:43:10.453Z,13.80
2023-05-23T08:46:00.122Z,14.30
2023-05-23T08:48:54.866Z,13.93
2023-05-23T08:51:48.379Z,14.07
2023-05-23T08:54:44.354Z,14.37
2023-05-23T08:57:38.068Z,14.40
2023-05-23T09:00:45.096Z,13.90
2023-05-23T09:03:37.656Z,14.20
2023-05-23T09:07:05.579Z,14.17
2023-05-23T09:09:55.371Z,14.07
2023-05-23T09:12:45.888Z,14.90
2023-05-23T09:15:35.377Z,15.33
2023-05-23T09:18:27.206Z,13.80
2023-05-23T09:21:16.765Z,14.20
2023-05-23T09:24:16.571Z,13.60
2023-05-23T09:27:08.166Z,13.20
2023-05-23T09:29:57.792Z,13.50
2023-05-23T09:33:04.742Z,13.57
2023-05-23T09:35:55.932Z,13.10
2023-05-23T09:38:48.804Z,13.20
2023-05-23T09:41:39.582Z,12.67
2023-05-23T09:44:29.937Z,12.80
2023-05-23T09:47:19.688Z,12.63
2023-05-23T09:50:14.595Z,12.70
2023-05-23T09:53:03.977Z,12.87
2023-05-23T09:55:54.060Z,13.10
2023-05-23T09:58:48.787Z,12.67
2023-05-23T10:01:38.638Z,12.73
2023-05-23T10:04:32.790Z,12.67
2023-05-23T10:07:23.571Z,12.30
2023-05-23T10:10:14.701Z,12.30
2023-05-23T10:13:05.774Z,11.97
2023-05-23T10:16:01.613Z,12.83
2023-05-23T10:18:56.670Z,12.60
2023-05-23T10:21:51.000Z,11.63
2023-05-23T10:24:40.584Z,11.97
2023-05-23T10:27:30.274Z,12.27
2023-05-23T10:30:21.750Z,11.87
2023-05-23T10:33:14.165Z,12.30
2023-05-23T10:36:12.375Z,12.43
2023-05-23T10:39:11.125Z,11.90
2023-05-23T10:42:07.249Z,12.20
2023-05-23T10:45:16.721Z,11.93
2023-05-23T10:48:23.893Z,12.37
2023-05-23T10:51:15.359Z,12.50
2023-05-23T10:54:13.197Z,12.90
2023-05-23T10:57:06.895Z,11.93
2023-05-23T10:59:56.398Z,12.20
2023-05-23T11:02:56.516Z,12.23
2023-05-23T11:05:54.577Z,12.60
2023-05-23T11:08:48.950Z,12.47
2023-05-23T11:12:02.771Z,12.33
2023-05-23T11:14:56.088Z,12.10
2023-05-23T11:17:54.113Z,12.23
2023-05-23T11:20:47.550Z,11.80
2023-05-23T11:23:45.018Z,12.37
2023-05-23T11:26:34.525Z,12.10
2023-05-23T11:29:25.385Z,12.07
2023-05-23T11:32:17.663Z,11.57
2023-05-23T11:35:10.156Z,12.27
2023-05-23T11:37:59.687Z,12.30
2023-05-23T11:40:50.472Z,12.67
2023-05-23T11:43:50.880Z,12.33
2023-05-23T11:46:44.005Z,12.50
2023-05-23T11:49:35.579Z,11.73
2023-05-23T11:52:24.979Z,12.40
2023-05-23T11:55:14.370Z,11.83
2023-05-23T11:58:05.235Z,11.80
2023-05-23T12:01:00.071Z,11.50
2023-05-23T12:03:52.590Z,12.50
2023-05-23T12:06:43.205Z,11.67
2023-05-23T12:09:32.588Z,11.60
2023-05-23T12:12:22.522Z,11.20
2023-05-23T12:15:16.665Z,11.40
2023-05-23T12:18:07.207Z,11.00
2023-05-23T12:21:03.174Z,10.67
2023-05-23T12:23:52.841Z,11.00
2023-05-23T12:26:52.717Z,11.33
2023-05-23T12:29:42.080Z,10.73
2023-05-23T12:32:32.779Z,10.43
2023-05-23T12:35:22.135Z,10.60
2023-05-23T12:38:16.480Z,10.50
2023-05-23T12:41:13.614Z,10.30
2023-05-23T12:44:04.708Z,10.47
2023-05-23T12:46:54.741Z,10.50
2023-05-23T12:49:46.963Z,10.20
2023-05-23T12:52:37.323Z,10.20
2023-05-23T12:55:26.729Z,10.13
2023-05-23T12:58:16.176Z,10.03
2023-05-23T13:01:05.968Z,10.07
2023-05-23T13:03:55.495Z,10.30
2023-05-23T13:06:46.823Z,10.30
2023-05-23T13:09:36.152Z,10.40
2023-05-23T13:12:25.826Z,10.20
2023-05-23T13:15:15.149Z,9.83
2023-05-23T13:18:04.967Z,9.67
2023-05-23T13:20:55.024Z,9.80
2023-05-23T13:23:45.916Z,9.90
2023-05-23T13:26:35.402Z,10.00
2023-05-23T13:29:24.745Z,9.77
2023-05-23T13:32:14.058Z,9.93
2023-05-23T13:35:03.531Z,9.90
2023-05-23T13:37:53.325Z,9.67
2023-05-23T13:40:44.163Z,9.60
2023-05-23T13:43:33.643Z,9.50
2023-05-23T13:46:23.207Z,9.60
2023-05-23T13:49:12.647Z,9.70
2023-05-23T13:52:02.107Z,9.93
2023-05-23T13:54:51.756Z,9.63
2023-05-23T13:57:42.465Z,10.13
2023-05-23T14:00:33.395Z,9.60
2023-05-23T14:03:24.617Z,9.47
2023-05-23T14:06:22.768Z,9.70
2023-05-23T14:09:12.561Z,9.30
2023-05-23T14:12:09.611Z,9.10
2023-05-23T14:15:00.793Z,8.97
2023-05-23T14:17:55.246Z,8.70
2023-05-23T14:20:44.710Z,8.90
2023-05-23T14:23:34.132Z,8.73
2023-05-23T14:26:23.482Z,8.60
2023-05-23T14:29:12.848Z,8.70
2023-05-23T14:32:04.174Z,8.53
2023-05-23T14:34:53.614Z,8.50
2023-05-23T14:37:42.972Z,8.63
2023-05-23T14:40:32.259Z,8.60
2023-05-23T14:43:21.732Z,8.50
2023-05-23T14:46:11.387Z,8.60
2023-05-23T14:49:02.283Z,8.97
2023-05-23T14:51:52.145Z,8.80
2023-05-23T14:54:41.762Z,8.90
2023-05-23T14:57:31.160Z,9.13
2023-05-23T15:00:21.187Z,9.20
2023-05-23T15:03:11.895Z,9.07
2023-05-23T15:06:04.345Z,9.00
2023-05-23T15:08:53.765Z,9.30
2023-05-23T15:11:45.080Z,9.20
2023-05-23T15:14:34.444Z,9.60
2023-05-23T15:17:26.591Z,9.60
2023-05-23T15:20:16.387Z,10.20
2023-05-23T15:23:07.301Z,10.30
2023-05-23T15:25:56.694Z,10.30
2023-05-23T15:28:46.073Z,10.03
2023-05-23T15:31:35.427Z,10.07
2023-05-23T15:34:24.820Z,10.13
2023-05-23T15:37:14.164Z,9.90
2023-05-23T15:40:05.709Z,10.00
2023-05-23T15:42:55.053Z,9.70
2023-05-23T15:45:44.452Z,9.77
2023-05-23T15:48:34.047Z,10.03
2023-05-23T15:51:27.899Z,9.70
2023-05-23T15:54:17.426Z,10.10
2023-05-23T15:57:08.678Z,9.93
2023-05-23T15:59:58.165Z,9.87
2023-05-23T16:02:47.579Z,9.90
2023-05-23T16:05:38.013Z,9.70
2023-05-23T16:08:27.437Z,9.70
2023-05-23T16:11:17.890Z,9.90
2023-05-23T16:14:09.218Z,9.70
2023-05-23T16:17:02.762Z,9.60
2023-05-23T16:19:52.256Z,9.80
2023-05-23T16:22:42.126Z,9.70
2023-05-23T16:25:31.522Z,9.90
2023-05-23T16:28:22.957Z,9.60
2023-05-23T16:31:16.845Z,9.20
2023-05-23T16:34:11.665Z,9.40
2023-05-23T16:37:05.576Z,9.57
2023-05-23T16:39:55.060Z,9.30
2023-05-23T16:42:45.224Z,9.40
2023-05-23T16:45:39.208Z,9.40
2023-05-23T16:48:31.795Z,9.40
2023-05-23T16:51:21.331Z,9.10
2023-05-23T16:54:10.685Z,9.30
2023-05-23T16:57:01.911Z,9.50
2023-05-23T16:59:51.611Z,9.70
2023-05-23T17:02:41.071Z,9.43
2023-05-23T17:05:32.077Z,9.43
2023-05-23T17:08:21.473Z,9.50
2023-05-23T17:11:10.847Z,9.17
2023-05-23T17:14:00.299Z,9.17
2023-05-23T17:16:49.639Z,10.00
2023-05-23T17:19:39.169Z,9.63
2023-05-23T17:22:29.997Z,9.13
2023-05-23T17:25:19.399Z,9.40
2023-05-23T17:28:08.785Z,9.13
2023-05-23T17:30:58.155Z,9.07
2023-05-23T17:33:47.506Z,9.00
2023-05-23T17:36:36.858Z,9.10
2023-05-23T17:39:27.610Z,9.07
2023-05-23T17:42:18.002Z,9.20
2023-05-23T17:45:09.455Z,8.90
2023-05-23T17:48:03.382Z,8.80
2023-05-23T17:50:53.061Z,9.00
2023-05-23T17:53:42.490Z,8.80
2023-05-23T17:56:33.199Z,9.13
2023-05-23T17:59:22.623Z,9.13
2023-05-23T18:02:12.027Z,9.10
2023-05-23T18:05:02.120Z,9.03
2023-05-23T18:07:51.589Z,9.00
2023-05-23T18:10:41.133Z,9.20
2023-05-23T18:13:32.094Z,9.20
2023-05-23T18:16:22.165Z,9.63
2023-05-23T18:19:11.637Z,9.60
2023-05-23T18:22:01.052Z,9.40
2023-05-23T18:24:50.427Z,9.60
2023-05-23T18:27:39.783Z,9.63
2023-05-23T18:30:30.732Z,9.80
2023-05-23T18:33:20.206Z,9.47
2023-05-23T18:36:09.865Z,9.50
2023-05-23T18:38:59.445Z,9.63
2023-05-23T18:41:49.018Z,9.63
2023-05-23T18:44:38.327Z,9.60
2023-05-23T18:47:29.132Z,10.00
2023-05-23T18:50:18.733Z,9.57
2023-05-23T18:53:08.165Z,9.90
2023-05-23T18:55:58.160Z,9.90
2023-05-23T18:58:47.605Z,9.63
2023-05-23T19:01:36.979Z,10.30
2023-05-23T19:04:27.810Z,9.83
2023-05-23T19:07:17.413Z,9.67
2023-05-23T19:10:08.108Z,10.50
2023-05-23T19:12:58.082Z,10.40
2023-05-23T19:15:47.536Z,10.00
2023-05-23T19:18:37.459Z,10.33
2023-05-23T19:21:28.457Z,10.20
2023-05-23T19:24:18.018Z,9.90
2023-05-23T19:27:07.740Z,9.83
2023-05-23T19:29:57.456Z,10.30
2023-05-23T19:32:46.859Z,10.20
2023-05-23T19:35:37.157Z,10.40
2023-05-23T19:38:27.981Z,9.83
2023-05-23T19:41:18.915Z,9.90
2023-05-23T19:44:10.570Z,9.90
2023-05-23T19:47:00.387Z,9.83
2023-05-23T19:49:49.832Z,9.60
2023-05-23T19:52:39.375Z,10.10
2023-05-23T19:55:30.040Z,10.00
2023-05-23T19:58:19.572Z,10.27
2023-05-23T20:01:08.987Z,10.20
2023-05-23T20:03:58.443Z,12.40
2023-05-23T20:06:47.818Z,11.60
2023-05-23T20:09:37.948Z,11.00
2023-05-23T20:12:29.244Z,11.13
2023-05-23T20:15:27.575Z,10.70
2023-05-23T20:18:28.536Z,10.27
2023-05-23T20:21:18.162Z,10.50
2023-05-23T20:24:07.944Z,10.00
2023-05-23T20:26:57.758Z,10.20
2023-05-23T20:29:48.719Z,9.83
2023-05-23T20:32:38.073Z,10.30
2023-05-23T20:35:27.503Z,10.40
2023-05-23T20:38:18.552Z,10.90
2023-05-23T20:41:08.040Z,10.00
2023-05-23T20:43:57.720Z,10.77
2023-05-23T20:46:48.497Z,10.50
2023-05-23T20:49:37.870Z,10.50
2023-05-23T20:52:27.257Z,10.50
2023-05-23T20:55:16.628Z,10.63
2023-05-23T20:58:06.879Z,10.47
2023-05-23T21:00:57.860Z,10.97
2023-05-23T21:03:48.570Z,11.10
2023-05-23T21:06:38.298Z,10.93
2023-05-23T21:09:27.639Z,10.50
2023-05-23T21:12:31.004Z,10.67
2023-05-23T21:15:20.566Z,10.97
2023-05-23T21:18:10.093Z,11.10
2023-05-23T21:21:01.078Z,10.53
2023-05-23T21:23:50.497Z,10.50
2023-05-23T21:26:39.808Z,11.47
2023-05-23T21:29:29.200Z,11.30
2023-05-23T21:32:18.560Z,11.20
2023-05-23T21:35:08.779Z,11.07
2023-05-23T21:37:59.513Z,11.80
2023-05-23T21:40:48.849Z,10.93
2023-05-23T21:43:38.143Z,11.00
2023-05-23T21:46:27.490Z,11.00
2023-05-23T21:49:16.966Z,11.43
2023-05-23T21:52:06.737Z,11.10
2023-05-23T21:54:57.429Z,10.80
2023-05-23T21:57:46.789Z,10.87
2023-05-23T22:00:36.153Z,10.67
2023-05-23T22:03:26.250Z,10.40
2023-05-23T22:06:15.909Z,10.30
2023-05-23T22:09:05.899Z,10.83
2023-05-23T22:11:56.672Z,10.33
2023-05-23T22:14:46.193Z,10.73
2023-05-23T22:17:35.705Z,11.03
2023-05-23T22:20:25.055Z,11.03
2023-05-23T22:23:17.156Z,10.43
2023-05-23T22:26:06.658Z,10.70
2023-05-23T22:28:57.716Z,10.40
2023-05-23T22:31:48.471Z,10.70
2023-05-23T22:34:38.534Z,10.70
2023-05-23T22:37:27.866Z,10.60
2023-05-23T22:40:17.379Z,10.60
2023-05-23T22:43:07.032Z,10.17
2023-05-23T22:45:58.397Z,10.40
2023-05-23T22:48:47.740Z,10.47
2023-05-23T22:51:37.268Z,10.60
2023-05-23T22:54:26.798Z,10.60
2023-05-23T22:57:16.171Z,10.63
2023-05-23T23:00:07.399Z,10.60
2023-05-23T23:02:58.426Z,9.90
2023-05-23T23:05:47.866Z,10.60
2023-05-23T23:08:37.550Z,9.63
2023-05-23T23:11:26.946Z,9.67
2023-05-23T23:14:16.430Z,10.10
2023-05-23T23:17:06.088Z,10.10
2023-05-23T23:19:57.856Z,9.87
2023-05-23T23:22:47.432Z,10.33
2023-05-23T23:25:37.110Z,10.07
2023-05-23T23:28:26.533Z,10.50
2023-05-23T23:31:16.098Z,10.07
2023-05-23T23:34:05.502Z,10.00
2023-05-23T23:36:56.557Z,9.93
2023-05-23T23:39:45.962Z,10.30
2023-05-23T23:42:35.318Z,10.07
2023-05-23T23:45:24.740Z,10.17
2023-05-23T23:48:14.926Z,9.83
2023-05-23T23:51:04.464Z,9.90
2023-05-23T23:53:56.453Z,9.80
2023-05-23T23:56:45.841Z,9.53
2023-05-23T23:59:35.225Z,10.00
